Time;durP1;ratioP1;P1;durP2;ratioP2;P2;SDS_P1;SDS_P2;PMS_P1;PMS_P2;Temp;Humidity;BMP_temperature;BMP_pressure;BME280_temperature;BME280_humidity;BME280_pressure;Samples;Min_cycle;Max_cycle;Signal;HPM_P1;HPM_P2
2023/05/24 00:01:24;;;;;;;0.00;0.00;;;13.70;99.90;;;;;;5053761;28;20276;-61
2023/05/24 00:03:51;;;;;;;0.00;0.00;;;13.70;99.90;;;;;;5053370;28;20267;-61
2023/05/24 00:06:17;;;;;;;0.00;0.00;;;13.70;99.90;;;;;;5053169;28;20226;-61
2023/05/24 00:08:42;;;;;;;0.08;0.08;;;13.60;99.90;;;;;;5053401;28;20189;-61
2023/05/24 00:11:09;;;;;;;0.00;0.00;;;13.60;99.90;;;;;;5052428;28;20182;-61
2023/05/24 00:13:35;;;;;;;0.00;0.00;;;13.60;99.90;;;;;;5053732;28;20303;-61
2023/05/24 00:16:01;;;;;;;0.00;0.00;;;13.60;99.90;;;;;;5053461;28;20181;-61
2023/05/24 00:18:26;;;;;;;0.00;0.00;;;13.50;99.90;;;;;;5053392;28;20549;-61
2023/05/24 00:20:55;;;;;;;0.00;0.00;;;13.50;99.90;;;;;;5048850;28;20217;-61
2023/05/24 00:23:21;;;;;;;0.00;0.00;;;13.50;99.90;;;;;;5052823;28;20189;-61
2023/05/24 00:25:47;;;;;;;0.00;0.00;;;13.50;99.90;;;;;;5053145;28;20217;-61
2023/05/24 00:28:12;;;;;;;0.00;0.00;;;13.50;99.90;;;;;;5052955;28;20192;-61
2023/05/24 00:30:38;;;;;;;0.00;0.00;;;13.50;99.90;;;;;;5053189;28;20181;-61
2023/05/24 00:33:03;;;;;;;0.00;0.00;;;13.50;99.90;;;;;;5052962;28;20173;-61
2023/05/24 00:35:29;;;;;;;0.00;0.00;;;13.50;99.90;;;;;;5053252;28;20184;-61
2023/05/24 00:37:55;;;;;;;0.00;0.00;;;13.40;99.90;;;;;;5052966;28;20177;-61
2023/05/24 00:40:21;;;;;;;0.00;0.00;;;13.30;99.90;;;;;;5052696;28;20288;-61
2023/05/24 00:42:46;;;;;;;0.00;0.00;;;13.20;99.90;;;;;;5052736;28;20712;-61
2023/05/24 00:45:12;;;;;;;0.03;0.03;;;13.20;99.90;;;;;;5052981;28;20664;-61
2023/05/24 00:47:38;;;;;;;0.08;0.08;;;13.10;99.90;;;;;;5050204;28;20196;-61
2023/05/24 00:50:05;;;;;;;0.00;0.00;;;13.00;99.90;;;;;;5051891;28;20189;-61
2023/05/24 00:52:31;;;;;;;0.00;0.00;;;13.00;99.90;;;;;;5052429;28;20186;-61
2023/05/24 00:54:57;;;;;;;0.00;0.00;;;12.90;99.90;;;;;;5052891;28;20186;-61
2023/05/24 00:57:23;;;;;;;0.00;0.00;;;12.90;99.90;;;;;;5052325;28;20621;-61
2023/05/24 00:59:50;;;;;;;0.00;0.00;;;12.80;99.90;;;;;;5052928;28;20679;-61
2023/05/24 01:02:17;;;;;;;0.00;0.00;;;12.80;99.90;;;;;;5052943;28;20189;-61
2023/05/24 01:04:43;;;;;;;0.00;0.00;;;12.70;99.90;;;;;;5052228;28;20730;-61
2023/05/24 01:07:25;;;;;;;0.00;0.00;;;12.70;99.90;;;;;;5052937;28;20209;-61
2023/05/24 01:10:00;;;;;;;0.10;0.10;;;12.70;99.90;;;;;;5048519;28;20277;-61
2023/05/24 01:12:52;;;;;;;0.00;0.00;;;12.80;99.90;;;;;;5052432;28;20185;-61
2023/05/24 01:15:51;;;;;;;0.00;0.00;;;12.80;99.90;;;;;;5040857;28;20190;-61
2023/05/24 01:18:29;;;;;;;0.00;0.00;;;12.80;99.90;;;;;;5051240;28;20277;-61
2023/05/24 01:21:47;;;;;;;0.00;0.00;;;12.80;99.90;;;;;;5052269;28;20682;-61
2023/05/24 01:24:28;;;;;;;0.00;0.00;;;12.80;99.90;;;;;;5048193;28;20229;-61
2023/05/24 01:27:05;;;;;;;0.00;0.00;;;12.80;99.90;;;;;;5052390;28;20605;-61
2023/05/24 01:29:32;;;;;;;0.00;0.00;;;12.80;99.90;;;;;;5052694;28;20177;-61
2023/05/24 01:31:58;;;;;;;0.32;0.32;;;12.80;99.90;;;;;;5052545;28;20717;-61
2023/05/24 01:34:27;;;;;;;0.00;0.00;;;12.80;99.90;;;;;;5052556;28;20224;-62
2023/05/24 01:36:52;;;;;;;0.00;0.00;;;12.80;99.90;;;;;;5052047;28;20272;-62
2023/05/24 01:39:20;;;;;;;0.00;0.00;;;12.80;99.90;;;;;;5051532;28;20265;-61
2023/05/24 01:41:59;;;;;;;0.00;0.00;;;12.90;99.90;;;;;;5052165;28;20205;-61
2023/05/24 01:44:43;;;;;;;0.00;0.00;;;12.90;99.90;;;;;;5046065;28;20300;-61
2023/05/24 01:47:41;;;;;;;0.00;0.00;;;12.90;99.90;;;;;;5052282;28;20177;-61
2023/05/24 01:50:17;;;;;;;0.00;0.00;;;12.80;99.90;;;;;;5033720;28;20243;-61
2023/05/24 01:52:44;;;;;;;0.00;0.00;;;12.80;99.90;;;;;;5052070;28;20167;-61
2023/05/24 01:55:13;;;;;;;0.00;0.00;;;12.80;99.90;;;;;;5052336;28;20165;-61
2023/05/24 01:57:40;;;;;;;0.00;0.00;;;12.80;99.90;;;;;;5052196;28;20188;-61
2023/05/24 02:00:09;;;;;;;0.00;0.00;;;12.80;99.90;;;;;;5051980;28;20525;-61
2023/05/24 02:02:35;;;;;;;0.00;0.00;;;12.80;99.90;;;;;;5052273;28;20211;-61
2023/05/24 02:05:00;;;;;;;0.00;0.00;;;12.80;99.90;;;;;;5051499;28;20216;-61
2023/05/24 02:07:26;;;;;;;0.00;0.00;;;12.80;99.90;;;;;;5051689;28;20189;-61
2023/05/24 02:09:52;;;;;;;0.00;0.00;;;12.80;99.90;;;;;;5051351;28;20214;-62
2023/05/24 02:12:17;;;;;;;0.00;0.00;;;12.70;99.90;;;;;;5051855;28;20276;-61
2023/05/24 02:14:43;;;;;;;0.00;0.00;;;12.70;99.90;;;;;;5051726;28;20182;-61
2023/05/24 02:17:08;;;;;;;0.00;0.00;;;12.70;99.90;;;;;;5051733;28;20176;-61
2023/05/24 02:19:35;;;;;;;0.00;0.00;;;12.70;99.90;;;;;;5051108;28;20200;-61
2023/05/24 02:22:02;;;;;;;0.00;0.00;;;12.60;99.90;;;;;;5050338;28;20256;-61
2023/05/24 02:24:27;;;;;;;0.10;0.10;;;12.50;99.90;;;;;;5051356;28;20302;-61
2023/05/24 02:26:54;;;;;;;0.10;0.10;;;12.50;99.90;;;;;;5048577;28;20251;-62
2023/05/24 02:29:21;;;;;;;0.00;0.00;;;12.50;99.90;;;;;;5051422;28;20178;-62
2023/05/24 02:31:49;;;;;;;0.00;0.00;;;12.50;99.90;;;;;;5051649;28;20308;-62
2023/05/24 02:34:14;;;;;;;0.00;0.00;;;12.50;99.90;;;;;;5051218;28;20659;-61
2023/05/24 02:36:41;;;;;;;0.00;0.00;;;12.40;99.90;;;;;;5051291;28;20189;-61
2023/05/24 02:39:07;;;;;;;0.00;0.00;;;12.40;99.90;;;;;;5051012;28;20663;-61
2023/05/24 02:41:32;;;;;;;0.00;0.00;;;12.40;99.90;;;;;;5051500;28;20177;-61
2023/05/24 02:43:58;;;;;;;0.10;0.10;;;12.40;99.90;;;;;;5051195;28;20216;-61
2023/05/24 02:46:23;;;;;;;0.00;0.00;;;12.30;99.90;;;;;;5051296;28;20261;-61
2023/05/24 02:48:49;;;;;;;0.00;0.00;;;12.30;99.90;;;;;;5051032;28;20178;-61
2023/05/24 02:51:14;;;;;;;0.00;0.00;;;12.30;99.90;;;;;;5051017;28;20264;-61
2023/05/24 02:53:42;;;;;;;0.00;0.00;;;12.30;99.90;;;;;;5049650;28;20629;-61
2023/05/24 02:56:08;;;;;;;0.00;0.00;;;12.30;99.90;;;;;;5050929;28;20207;-61
2023/05/24 02:58:33;;;;;;;0.40;0.40;;;12.40;99.90;;;;;;5051208;28;20213;-61
2023/05/24 03:01:00;;;;;;;0.00;0.00;;;12.40;99.90;;;;;;5050924;28;20268;-61
2023/05/24 03:03:25;;;;;;;0.00;0.00;;;12.40;99.90;;;;;;5051179;28;20180;-61
2023/05/24 03:05:51;;;;;;;0.00;0.00;;;12.40;99.90;;;;;;5049197;28;20213;-61
2023/05/24 03:08:17;;;;;;;0.00;0.00;;;12.40;99.90;;;;;;5051005;28;20625;-61
2023/05/24 03:10:42;;;;;;;0.00;0.00;;;12.30;99.90;;;;;;5051226;28;20177;-61
2023/05/24 03:13:08;;;;;;;0.00;0.00;;;12.30;99.90;;;;;;5050533;28;20711;-61
2023/05/24 03:15:33;;;;;;;0.00;0.00;;;12.30;99.90;;;;;;5049591;28;20207;-61
2023/05/24 03:17:58;;;;;;;0.10;0.10;;;12.30;99.90;;;;;;5050971;28;20199;-61
2023/05/24 03:20:24;;;;;;;0.00;0.00;;;12.30;99.90;;;;;;5050028;28;20177;-61
2023/05/24 03:22:50;;;;;;;0.00;0.00;;;12.30;99.90;;;;;;5048937;28;20177;-61
2023/05/24 03:25:16;;;;;;;0.00;0.00;;;12.30;99.90;;;;;;5049296;28;20688;-61
2023/05/24 03:27:41;;;;;;;0.00;0.00;;;12.30;99.90;;;;;;5050246;28;20260;-61
2023/05/24 03:30:07;;;;;;;0.15;0.15;;;12.20;99.90;;;;;;5047254;28;20174;-61
2023/05/24 03:32:33;;;;;;;0.10;0.10;;;12.20;99.90;;;;;;5048855;28;20173;-61
2023/05/24 03:35:00;;;;;;;0.00;0.00;;;12.10;99.90;;;;;;5048709;28;20223;-60
2023/05/24 03:37:26;;;;;;;0.00;0.00;;;12.10;99.90;;;;;;5048854;28;20515;-60
2023/05/24 03:39:51;;;;;;;0.00;0.00;;;12.10;99.90;;;;;;5049124;28;20659;-60
2023/05/24 03:42:17;;;;;;;0.00;0.00;;;12.00;99.90;;;;;;5050490;28;20187;-60
2023/05/24 03:44:42;;;;;;;0.10;0.10;;;12.00;99.90;;;;;;5050160;28;20209;-59
2023/05/24 03:47:08;;;;;;;0.00;0.00;;;11.90;99.90;;;;;;5048089;28;20184;-60
2023/05/24 03:49:33;;;;;;;0.00;0.00;;;11.90;99.90;;;;;;5050097;28;20208;-62
2023/05/24 03:51:59;;;;;;;0.00;0.00;;;11.90;99.90;;;;;;5050005;28;20184;-61
2023/05/24 03:54:25;;;;;;;0.00;0.00;;;11.80;99.90;;;;;;5049798;28;20238;-59
2023/05/24 03:56:52;;;;;;;0.00;0.00;;;11.80;99.90;;;;;;5050024;28;20182;-61
2023/05/24 03:59:17;;;;;;;0.00;0.00;;;11.80;99.90;;;;;;5049485;28;20188;-62
2023/05/24 04:01:43;;;;;;;0.00;0.00;;;11.70;99.90;;;;;;5050085;28;20261;-62
2023/05/24 04:04:08;;;;;;;0.00;0.00;;;11.70;99.90;;;;;;5049127;28;20205;-61
2023/05/24 04:06:35;;;;;;;0.05;0.05;;;11.70;99.90;;;;;;5048044;28;20169;-59
2023/05/24 04:09:01;;;;;;;0.00;0.00;;;11.70;99.90;;;;;;5049998;28;20177;-60
2023/05/24 04:11:27;;;;;;;0.00;0.00;;;11.60;99.90;;;;;;5048235;28;20276;-59
2023/05/24 04:13:54;;;;;;;0.00;0.00;;;11.70;99.90;;;;;;5049381;28;20415;-60
2023/05/24 04:16:22;;;;;;;0.00;0.00;;;11.60;99.90;;;;;;5049708;28;20210;-60
2023/05/24 04:18:52;;;;;;;0.00;0.00;;;11.60;99.90;;;;;;5049015;28;20668;-60
2023/05/24 04:21:18;;;;;;;0.00;0.00;;;11.60;99.90;;;;;;5049512;28;20185;-59
2023/05/24 04:23:44;;;;;;;0.00;0.00;;;11.60;99.90;;;;;;5049715;28;20547;-60
2023/05/24 04:26:10;;;;;;;0.00;0.00;;;11.60;99.90;;;;;;5049888;28;20420;-59
2023/05/24 04:28:37;;;;;;;0.10;0.10;;;11.60;99.90;;;;;;5049843;28;20169;-59
2023/05/24 04:31:05;;;;;;;0.00;0.00;;;11.60;99.90;;;;;;5049679;28;20182;-59
2023/05/24 04:33:31;;;;;;;0.00;0.00;;;11.60;99.90;;;;;;5053387;28;20178;-59
2023/05/24 04:35:59;;;;;;;0.00;0.00;;;11.60;99.90;;;;;;5053354;28;20174;-59
2023/05/24 04:38:28;;;;;;;0.00;0.00;;;11.60;99.90;;;;;;5053363;28;20177;-59
2023/05/24 04:40:55;;;;;;;0.00;0.00;;;11.60;99.90;;;;;;5053467;28;20182;-59
2023/05/24 04:43:21;;;;;;;0.00;0.00;;;11.60;99.90;;;;;;5043664;28;20177;-59
2023/05/24 04:45:46;;;;;;;0.00;0.00;;;11.60;99.90;;;;;;5052986;28;20225;-60
2023/05/24 04:48:12;;;;;;;0.00;0.00;;;11.60;99.90;;;;;;5053138;28;20250;-59
2023/05/24 04:50:38;;;;;;;0.00;0.00;;;11.60;99.90;;;;;;5053030;28;20181;-59
2023/05/24 04:53:03;;;;;;;0.00;0.00;;;11.60;99.90;;;;;;5053043;28;20181;-60
2023/05/24 04:55:29;;;;;;;0.00;0.00;;;11.60;99.90;;;;;;5053228;28;20212;-60
2023/05/24 04:57:54;;;;;;;0.00;0.00;;;11.60;99.90;;;;;;5053126;28;20178;-60
2023/05/24 05:00:20;;;;;;;0.85;0.38;;;11.70;99.90;;;;;;5053115;28;20170;-60
2023/05/24 05:02:46;;;;;;;0.75;0.75;;;11.70;99.90;;;;;;5052954;28;20192;-60
2023/05/24 05:05:12;;;;;;;0.00;0.00;;;11.70;99.90;;;;;;5052967;28;20312;-60
2023/05/24 05:07:37;;;;;;;0.00;0.00;;;11.80;99.90;;;;;;5053004;28;20247;-60
2023/05/24 05:10:03;;;;;;;0.03;0.03;;;11.80;99.90;;;;;;5052963;28;20268;-60
2023/05/24 05:12:29;;;;;;;0.00;0.00;;;11.80;99.90;;;;;;5052887;28;20173;-60
2023/05/24 05:14:54;;;;;;;0.00;0.00;;;11.90;99.90;;;;;;5052825;28;20174;-60
2023/05/24 05:17:20;;;;;;;0.15;0.10;;;11.90;99.90;;;;;;5052757;28;20252;-60
2023/05/24 05:19:46;;;;;;;0.65;0.65;;;12.00;99.90;;;;;;5051556;28;20181;-60
2023/05/24 05:22:11;;;;;;;0.00;0.00;;;12.00;99.90;;;;;;5052718;28;20213;-60
2023/05/24 05:24:37;;;;;;;0.00;0.00;;;12.00;99.90;;;;;;5052404;28;20248;-60
2023/05/24 05:27:02;;;;;;;0.00;0.00;;;12.10;99.90;;;;;;5052470;28;20177;-60
2023/05/24 05:29:28;;;;;;;0.00;0.00;;;12.10;99.90;;;;;;5051495;28;20197;-60
2023/05/24 05:31:54;;;;;;;0.00;0.00;;;12.20;99.90;;;;;;5052478;28;20169;-60
2023/05/24 05:34:20;;;;;;;0.00;0.00;;;12.20;99.90;;;;;;5052650;28;20165;-60
2023/05/24 05:36:45;;;;;;;0.00;0.00;;;12.30;99.90;;;;;;5052444;28;20319;-60
2023/05/24 05:39:11;;;;;;;0.00;0.00;;;12.30;99.90;;;;;;5052559;28;20174;-60
2023/05/24 05:41:43;;;;;;;0.00;0.00;;;12.40;99.90;;;;;;5049517;28;21080;-60
2023/05/24 05:44:09;;;;;;;0.00;0.00;;;12.50;99.90;;;;;;5032480;28;20283;-60
2023/05/24 05:46:35;;;;;;;0.00;0.00;;;12.50;99.90;;;;;;5032589;28;20236;-60
2023/05/24 05:49:00;;;;;;;0.00;0.00;;;12.60;99.90;;;;;;5032387;28;20178;-60
2023/05/24 05:51:26;;;;;;;0.00;0.00;;;12.70;99.90;;;;;;5048557;28;20211;-60
2023/05/24 05:53:51;;;;;;;0.00;0.00;;;12.80;99.90;;;;;;5052333;28;20195;-60
2023/05/24 05:56:17;;;;;;;0.00;0.00;;;12.80;99.90;;;;;;5052232;28;20177;-60
2023/05/24 05:58:43;;;;;;;0.00;0.00;;;13.00;99.90;;;;;;5052250;28;20173;-60
2023/05/24 06:01:08;;;;;;;0.00;0.00;;;13.10;99.90;;;;;;5052343;28;20183;-60
2023/05/24 06:03:34;;;;;;;0.00;0.00;;;13.10;99.90;;;;;;5052117;28;20209;-60
2023/05/24 06:05:59;;;;;;;0.00;0.00;;;13.20;99.90;;;;;;5051834;28;20304;-60
2023/05/24 06:08:26;;;;;;;0.00;0.00;;;13.30;99.90;;;;;;5052190;28;20177;-60
2023/05/24 06:10:51;;;;;;;0.00;0.00;;;13.40;99.90;;;;;;5051926;28;20846;-60
2023/05/24 06:13:17;;;;;;;0.00;0.00;;;13.50;99.90;;;;;;5051892;28;20177;-60
2023/05/24 06:15:43;;;;;;;0.00;0.00;;;13.60;99.90;;;;;;5051885;28;20264;-60
2023/05/24 06:18:08;;;;;;;0.00;0.00;;;13.70;99.90;;;;;;5051791;28;20174;-60
2023/05/24 06:20:35;;;;;;;0.00;0.00;;;13.80;99.90;;;;;;5051769;28;20537;-59
2023/05/24 06:23:01;;;;;;;0.00;0.00;;;13.90;99.90;;;;;;5051377;28;20179;-60
2023/05/24 06:25:29;;;;;;;0.00;0.00;;;14.00;99.90;;;;;;5051514;28;20241;-60
2023/05/24 06:27:55;;;;;;;0.00;0.00;;;14.10;99.80;;;;;;5051450;28;20512;-60
2023/05/24 06:30:21;;;;;;;0.10;0.10;;;14.10;99.90;;;;;;5051627;28;20178;-60
2023/05/24 06:32:46;;;;;;;0.00;0.00;;;14.10;99.10;;;;;;5051397;28;20177;-60
2023/05/24 06:35:12;;;;;;;0.00;0.00;;;14.10;99.00;;;;;;5051483;28;20268;-60
2023/05/24 06:37:38;;;;;;;0.00;0.00;;;14.20;99.30;;;;;;5051155;28;20199;-60
2023/05/24 06:40:06;;;;;;;0.08;0.08;;;14.60;99.00;;;;;;5051232;28;20459;-60
2023/05/24 06:42:31;;;;;;;0.00;0.00;;;15.20;98.60;;;;;;5051576;28;20186;-60
2023/05/24 06:44:57;;;;;;;0.00;0.00;;;15.50;97.60;;;;;;5051237;28;20235;-60
2023/05/24 06:47:22;;;;;;;0.00;0.00;;;15.60;96.20;;;;;;5051395;28;20208;-60
2023/05/24 06:49:48;;;;;;;0.00;0.00;;;15.60;95.70;;;;;;5048506;28;20203;-60
2023/05/24 06:52:14;;;;;;;0.00;0.00;;;15.40;95.50;;;;;;5031432;28;20243;-60
2023/05/24 06:54:40;;;;;;;0.00;0.00;;;15.20;95.60;;;;;;5029605;28;20509;-60
2023/05/24 06:57:05;;;;;;;0.00;0.00;;;15.00;95.70;;;;;;5031363;28;20752;-60
2023/05/24 06:59:31;;;;;;;0.00;0.00;;;14.80;95.90;;;;;;5031384;28;20181;-60
2023/05/24 07:01:56;;;;;;;0.00;0.00;;;14.70;96.30;;;;;;5031009;28;20236;-60
2023/05/24 07:04:23;;;;;;;0.00;0.00;;;14.70;96.40;;;;;;5031365;28;20293;-60
2023/05/24 07:06:50;;;;;;;0.00;0.00;;;14.70;96.20;;;;;;5031006;28;20636;-61
2023/05/24 07:09:16;;;;;;;0.00;0.00;;;14.70;96.40;;;;;;5031292;28;20201;-60
2023/05/24 07:11:42;;;;;;;0.00;0.00;;;14.80;96.20;;;;;;5046321;28;20170;-60
2023/05/24 07:14:07;;;;;;;0.00;0.00;;;14.80;96.00;;;;;;5031062;28;20194;-60
2023/05/24 07:16:33;;;;;;;0.00;0.00;;;14.80;96.10;;;;;;5030902;28;20186;-60
2023/05/24 07:18:58;;;;;;;0.00;0.00;;;14.80;96.20;;;;;;5030826;28;20174;-60
2023/05/24 07:21:24;;;;;;;0.00;0.00;;;14.90;96.60;;;;;;5031134;28;20288;-59
2023/05/24 07:23:52;;;;;;;0.00;0.00;;;14.90;95.90;;;;;;5031042;28;20233;-60
2023/05/24 07:26:18;;;;;;;0.00;0.00;;;14.90;96.00;;;;;;5031346;28;20186;-60
2023/05/24 07:28:43;;;;;;;0.00;0.00;;;15.00;96.10;;;;;;5036502;28;20260;-60
2023/05/24 07:31:09;;;;;;;0.00;0.00;;;15.00;96.10;;;;;;5051204;28;20228;-59
2023/05/24 07:33:36;;;;;;;0.00;0.00;;;15.10;95.70;;;;;;5051161;28;20845;-60
2023/05/24 07:36:03;;;;;;;0.00;0.00;;;15.20;95.30;;;;;;5051151;28;20177;-60
2023/05/24 07:38:29;;;;;;;0.00;0.00;;;15.40;95.10;;;;;;5050939;28;20732;-60
2023/05/24 07:40:57;;;;;;;0.00;0.00;;;15.70;94.80;;;;;;5050948;28;20181;-60
2023/05/24 07:43:23;;;;;;;0.00;0.00;;;16.20;94.90;;;;;;5050770;28;20186;-60
2023/05/24 07:45:49;;;;;;;0.00;0.00;;;17.20;94.00;;;;;;5050857;28;20219;-61
2023/05/24 07:48:14;;;;;;;0.00;0.00;;;18.40;93.20;;;;;;5051150;28;20166;-60
2023/05/24 07:50:40;;;;;;;0.00;0.00;;;19.40;89.90;;;;;;5040985;28;20181;-60
2023/05/24 07:53:06;;;;;;;0.00;0.00;;;19.60;85.20;;;;;;5030859;28;20196;-60
2023/05/24 07:55:31;;;;;;;0.00;0.00;;;19.80;84.90;;;;;;5031026;28;20201;-60
2023/05/24 07:57:57;;;;;;;0.00;0.00;;;20.30;83.80;;;;;;5030704;28;20174;-60
2023/05/24 08:00:22;;;;;;;0.00;0.00;;;20.70;80.00;;;;;;5031134;28;20566;-59
2023/05/24 08:02:48;;;;;;;0.00;0.00;;;20.60;77.80;;;;;;5030858;28;20722;-60
2023/05/24 08:05:14;;;;;;;0.00;0.00;;;21.00;79.50;;;;;;5031017;28;20214;-60
2023/05/24 08:07:40;;;;;;;0.00;0.00;;;21.60;77.10;;;;;;5033274;28;20178;-60
2023/05/24 08:10:08;;;;;;;0.00;0.00;;;21.90;73.50;;;;;;5034733;28;20174;-60
2023/05/24 08:12:33;;;;;;;0.20;0.20;;;21.90;71.60;;;;;;5034683;28;20175;-60
2023/05/24 08:14:59;;;;;;;0.00;0.00;;;21.80;72.50;;;;;;5034714;28;20179;-59
2023/05/24 08:17:25;;;;;;;0.00;0.00;;;21.40;69.20;;;;;;5034719;28;20174;-60
2023/05/24 08:19:51;;;;;;;0.00;0.00;;;20.70;72.00;;;;;;5034676;28;20189;-60
2023/05/24 08:22:16;;;;;;;0.00;0.00;;;20.40;71.80;;;;;;5034442;28;20178;-60
2023/05/24 08:24:42;;;;;;;0.00;0.00;;;20.10;73.10;;;;;;5034275;28;20230;-60
2023/05/24 08:27:07;;;;;;;0.00;0.00;;;19.80;72.40;;;;;;5034266;28;20200;-60
2023/05/24 08:29:34;;;;;;;0.00;0.00;;;19.40;73.00;;;;;;5046485;28;20165;-59
2023/05/24 08:31:59;;;;;;;0.00;0.00;;;18.90;74.80;;;;;;5054133;28;20182;-60
2023/05/24 08:34:25;;;;;;;0.00;0.00;;;18.60;75.30;;;;;;5054270;28;20185;-60
2023/05/24 08:36:51;;;;;;;0.10;0.10;;;18.40;76.70;;;;;;5054134;28;20165;-61
2023/05/24 08:39:16;;;;;;;0.00;0.00;;;18.20;77.00;;;;;;5054051;28;20173;-61
2023/05/24 08:41:42;;;;;;;0.00;0.00;;;18.00;77.50;;;;;;5050243;28;20196;-60
2023/05/24 08:44:09;;;;;;;0.00;0.00;;;17.70;78.10;;;;;;5044956;28;20534;-60
2023/05/24 08:46:36;;;;;;;0.00;0.00;;;17.50;78.70;;;;;;5052313;28;20182;-60
2023/05/24 08:49:03;;;;;;;0.00;0.00;;;17.20;79.90;;;;;;5033966;28;20184;-60
2023/05/24 08:51:29;;;;;;;0.00;0.00;;;17.10;80.20;;;;;;5036314;28;20204;-60
2023/05/24 08:53:57;;;;;;;0.00;0.00;;;16.80;80.20;;;;;;5039745;28;20177;-60
2023/05/24 08:56:25;;;;;;;0.10;0.10;;;16.60;81.00;;;;;;5053931;28;20217;-60
2023/05/24 08:58:52;;;;;;;0.00;0.00;;;16.40;81.50;;;;;;5053638;28;20657;-60
2023/05/24 09:01:18;;;;;;;0.00;0.00;;;16.30;83.00;;;;;;5053660;28;20539;-60
2023/05/24 09:03:45;;;;;;;0.00;0.00;;;16.40;82.90;;;;;;5053758;28;20272;-60
2023/05/24 09:06:15;;;;;;;0.00;0.00;;;16.40;83.20;;;;;;5053539;28;20205;-60
2023/05/24 09:08:42;;;;;;;0.00;0.00;;;16.50;83.20;;;;;;5053346;28;20181;-60
2023/05/24 09:11:08;;;;;;;0.00;0.00;;;16.60;83.20;;;;;;5052222;28;20209;-60
2023/05/24 09:13:34;;;;;;;0.08;0.08;;;16.80;83.90;;;;;;5053596;28;20232;-60
2023/05/24 09:16:00;;;;;;;0.00;0.00;;;17.00;82.50;;;;;;5053418;28;20295;-61
2023/05/24 09:18:25;;;;;;;0.00;0.00;;;17.50;83.80;;;;;;5053076;28;20204;-60
2023/05/24 09:20:51;;;;;;;0.00;0.00;;;17.90;81.20;;;;;;5052198;28;20177;-60
2023/05/24 09:23:17;;;;;;;0.00;0.00;;;18.40;80.10;;;;;;5053162;28;20185;-60
2023/05/24 09:25:43;;;;;;;0.00;0.00;;;19.20;78.50;;;;;;5053220;28;20220;-60
2023/05/24 09:28:16;;;;;;;0.00;0.00;;;19.90;79.00;;;;;;5053143;28;20177;-61
2023/05/24 09:30:56;;;;;;;0.00;0.00;;;20.70;74.60;;;;;;5053242;28;20638;-60
2023/05/24 09:33:22;;;;;;;0.00;0.00;;;21.10;70.60;;;;;;5053195;28;20166;-60
2023/05/24 09:35:48;;;;;;;0.00;0.00;;;20.80;70.20;;;;;;5053004;28;20170;-60
2023/05/24 09:38:17;;;;;;;0.00;0.00;;;20.90;69.80;;;;;;5053258;28;20177;-60
2023/05/24 09:40:43;;;;;;;0.03;0.03;;;20.70;68.70;;;;;;5052935;28;20162;-60
2023/05/24 09:43:09;;;;;;;0.00;0.00;;;20.50;68.60;;;;;;5052854;28;20180;-60
2023/05/24 09:45:48;;;;;;;0.20;0.20;;;20.40;69.00;;;;;;5052837;28;20213;-60
2023/05/24 09:48:16;;;;;;;0.00;0.00;;;20.30;67.30;;;;;;5052754;28;20643;-60
2023/05/24 09:50:44;;;;;;;0.00;0.00;;;19.90;67.60;;;;;;5052856;28;20199;-60
2023/05/24 09:53:10;;;;;;;0.00;0.00;;;19.70;69.10;;;;;;5052822;28;20188;-60
2023/05/24 09:55:36;;;;;;;0.00;0.00;;;19.50;67.30;;;;;;5050491;28;20193;-60
2023/05/24 09:58:10;;;;;;;0.00;0.00;;;19.20;68.00;;;;;;5032877;28;20224;-60
2023/05/24 10:00:39;;;;;;;0.00;0.00;;;19.20;69.70;;;;;;5032861;28;20660;-60
2023/05/24 10:03:06;;;;;;;0.00;0.00;;;19.20;68.90;;;;;;5032514;28;20502;-60
2023/05/24 10:05:32;;;;;;;0.00;0.00;;;19.30;66.60;;;;;;5032580;28;20224;-60
2023/05/24 10:07:59;;;;;;;0.00;0.00;;;19.30;65.00;;;;;;5032421;28;21168;-60
2023/05/24 10:10:30;;;;;;;0.00;0.00;;;19.40;69.40;;;;;;5032579;28;20170;-60
2023/05/24 10:12:57;;;;;;;0.00;0.00;;;19.80;69.70;;;;;;5032408;28;20166;-60
2023/05/24 10:15:23;;;;;;;0.00;0.00;;;20.50;67.80;;;;;;5032402;28;20231;-60
2023/05/24 10:17:50;;;;;;;0.00;0.00;;;21.10;64.80;;;;;;5032268;28;20244;-60
2023/05/24 10:20:16;;;;;;;0.00;0.00;;;21.80;64.00;;;;;;5032418;28;20260;-60
2023/05/24 10:22:45;;;;;;;0.00;0.00;;;22.30;63.60;;;;;;5047369;28;20660;-60
2023/05/24 10:25:24;;;;;;;0.00;0.00;;;22.60;61.30;;;;;;5032046;28;20246;-60
2023/05/24 10:27:54;;;;;;;0.20;0.20;;;22.70;58.30;;;;;;5032192;28;20174;-61
2023/05/24 10:30:32;;;;;;;0.00;0.00;;;22.90;56.40;;;;;;5049727;28;20695;-60
2023/05/24 10:32:59;;;;;;;0.00;0.00;;;22.90;54.60;;;;;;5051720;28;20651;-60
2023/05/24 10:35:26;;;;;;;0.00;0.00;;;23.00;54.40;;;;;;5052010;28;20184;-60
2023/05/24 10:37:53;;;;;;;0.00;0.00;;;23.20;55.30;;;;;;5051736;28;20173;-61
2023/05/24 10:40:20;;;;;;;0.00;0.00;;;23.50;54.80;;;;;;5050851;28;20207;-60
2023/05/24 10:42:47;;;;;;;0.00;0.00;;;23.40;57.00;;;;;;5051724;28;20578;-61
2023/05/24 10:45:34;;;;;;;0.00;0.00;;;23.70;54.70;;;;;;5051772;28;20213;-60
2023/05/24 10:48:12;;;;;;;0.00;0.00;;;23.60;54.20;;;;;;5051690;28;20230;-60
2023/05/24 10:50:38;;;;;;;0.00;0.00;;;23.50;53.60;;;;;;5051725;28;20230;-60
2023/05/24 10:53:13;;;;;;;0.00;0.00;;;23.30;54.50;;;;;;5051470;28;20165;-59
2023/05/24 10:55:56;;;;;;;0.00;0.00;;;23.10;54.10;;;;;;5048648;28;20674;-59
2023/05/24 10:58:36;;;;;;;0.00;0.00;;;23.30;53.40;;;;;;5031366;28;20223;-59
2023/05/24 11:01:02;;;;;;;0.00;0.00;;;23.60;54.90;;;;;;5031648;28;20166;-59
2023/05/24 11:03:35;;;;;;;0.00;0.00;;;23.80;52.60;;;;;;5031568;28;20606;-59
2023/05/24 11:06:01;;;;;;;0.00;0.00;;;23.90;53.00;;;;;;5031301;28;20221;-59
2023/05/24 11:08:34;;;;;;;0.00;0.00;;;23.50;54.00;;;;;;5031454;28;20209;-59
2023/05/24 11:11:11;;;;;;;0.00;0.00;;;23.30;53.20;;;;;;5031351;28;20256;-59
2023/05/24 11:13:40;;;;;;;0.00;0.00;;;22.80;52.40;;;;;;5031423;28;20518;-59
2023/05/24 11:16:06;;;;;;;0.00;0.00;;;22.60;54.10;;;;;;5031386;28;20212;-59
2023/05/24 11:18:32;;;;;;;0.00;0.00;;;22.90;54.00;;;;;;5031429;28;20202;-59
2023/05/24 11:21:02;;;;;;;0.00;0.00;;;23.10;53.60;;;;;;5031084;28;20178;-59
2023/05/24 11:23:29;;;;;;;0.00;0.00;;;23.30;53.70;;;;;;5030908;28;20183;-59
2023/05/24 11:25:56;;;;;;;0.00;0.00;;;23.20;53.40;;;;;;5031184;28;20667;-59
2023/05/24 11:28:22;;;;;;;0.00;0.00;;;22.90;53.40;;;;;;5033187;28;20178;-59
2023/05/24 11:30:48;;;;;;;0.00;0.00;;;22.40;55.90;;;;;;5051184;28;20551;-59
2023/05/24 11:33:15;;;;;;;0.00;0.00;;;22.20;55.60;;;;;;5051236;28;20177;-59
2023/05/24 11:35:41;;;;;;;0.00;0.00;;;21.80;55.20;;;;;;5050988;28;20630;-59
2023/05/24 11:38:13;;;;;;;0.00;0.00;;;21.50;55.50;;;;;;5051043;28;20264;-59
2023/05/24 11:40:44;;;;;;;0.00;0.00;;;21.80;56.40;;;;;;5051859;28;20584;-59
2023/05/24 11:43:16;;;;;;;0.00;0.00;;;22.20;58.40;;;;;;5055230;28;20176;-59
2023/05/24 11:45:43;;;;;;;0.00;0.00;;;22.60;56.30;;;;;;5055108;28;20221;-59
2023/05/24 11:48:09;;;;;;;0.00;0.00;;;23.00;55.00;;;;;;5054911;28;20209;-60
2023/05/24 11:50:41;;;;;;;0.00;0.00;;;23.00;54.00;;;;;;5055055;28;20177;-59
2023/05/24 11:53:11;;;;;;;0.10;0.10;;;23.10;53.90;;;;;;5054851;28;20245;-60
2023/05/24 11:55:38;;;;;;;0.00;0.00;;;22.90;53.70;;;;;;5052657;28;20579;-59
2023/05/24 11:58:10;;;;;;;0.00;0.00;;;22.90;52.70;;;;;;5047370;28;20192;-60
2023/05/24 12:00:36;;;;;;;0.00;0.00;;;22.60;53.10;;;;;;5046287;28;20686;-60
2023/05/24 12:03:06;;;;;;;0.00;0.00;;;22.20;54.20;;;;;;5054520;28;20188;-60
2023/05/24 12:05:36;;;;;;;0.00;0.00;;;21.90;55.00;;;;;;5054880;28;20556;-59
2023/05/24 12:08:04;;;;;;;0.00;0.00;;;21.80;55.90;;;;;;5054678;28;20177;-60
2023/05/24 12:10:34;;;;;;;0.00;0.00;;;22.10;56.90;;;;;;5054842;28;20181;-59
2023/05/24 12:13:01;;;;;;;0.00;0.00;;;22.20;55.10;;;;;;5054333;28;20177;-60
2023/05/24 12:15:27;;;;;;;0.13;0.13;;;22.30;55.90;;;;;;5054600;28;20181;-60
2023/05/24 12:17:53;;;;;;;0.00;0.00;;;22.30;55.00;;;;;;5054375;28;20177;-60
2023/05/24 12:20:20;;;;;;;0.00;0.00;;;22.40;55.10;;;;;;5054581;28;20354;-59
2023/05/24 12:22:53;;;;;;;0.00;0.00;;;21.70;53.90;;;;;;5054394;28;20165;-59
2023/05/24 12:25:21;;;;;;;0.00;0.00;;;21.60;55.90;;;;;;5054179;28;20323;-59
2023/05/24 12:27:55;;;;;;;0.00;0.00;;;21.80;55.20;;;;;;5054318;28;20177;-59
2023/05/24 12:30:27;;;;;;;0.03;0.03;;;21.90;54.40;;;;;;5054366;28;20177;-59
2023/05/24 12:32:53;;;;;;;0.00;0.00;;;21.80;54.60;;;;;;5054261;28;20531;-59
2023/05/24 12:35:20;;;;;;;0.00;0.00;;;21.80;54.10;;;;;;5054286;28;20174;-59
2023/05/24 12:37:47;;;;;;;0.00;0.00;;;21.80;53.80;;;;;;5054074;28;20169;-60
2023/05/24 12:40:20;;;;;;;0.00;0.00;;;21.80;54.30;;;;;;5054186;28;20185;-60
2023/05/24 12:42:54;;;;;;;0.00;0.00;;;21.70;54.00;;;;;;5054028;28;20169;-59
2023/05/24 12:45:24;;;;;;;0.00;0.00;;;21.90;53.20;;;;;;5053891;28;20285;-59
2023/05/24 12:47:51;;;;;;;0.00;0.00;;;22.10;53.60;;;;;;5054127;28;20174;-59
2023/05/24 12:50:22;;;;;;;0.00;0.00;;;22.30;53.20;;;;;;5052475;28;20648;-59